Time;durP1;ratioP1;P1;durP2;ratioP2;P2;SDS_P1;SDS_P2;PMS_P1;PMS_P2;Temp;Humidity;BMP_temperature;BMP_pressure;BME280_temperature;BME280_humidity;BME280_pressure;Samples;Min_cycle;Max_cycle;Signal;HPM_P1;HPM_P2
2022/11/26 00:00:58;;;;;;;;;35.25;28.25;;;;;9.02;100.00;102555.66;5126900;27;45967;-75
2022/11/26 00:03:23;;;;;;;;;31.50;23.75;;;;;9.01;100.00;102561.78;5133774;27;45374;-78
2022/11/26 00:05:51;;;;;;;;;30.50;26.25;;;;;8.99;100.00;102571.31;5137204;27;45707;-77
2022/11/26 00:08:29;;;;;;;;;31.50;26.25;;;;;8.93;100.00;102572.84;5136171;27;45454;-77
2022/11/26 00:10:54;;;;;;;;;30.50;24.50;;;;;8.88;100.00;102565.56;5088155;27;45360;-75
2022/11/26 00:13:22;;;;;;;;;23.75;21.25;;;;;8.88;100.00;102576.09;5137334;27;45458;-77
2022/11/26 00:15:49;;;;;;;;;29.75;25.75;;;;;8.87;100.00;102575.19;5115539;27;46096;-76
2022/11/26 00:18:15;;;;;;;;;29.50;22.25;;;;;8.87;100.00;102569.03;5115952;27;45465;-76
2022/11/26 00:20:41;;;;;;;;;28.75;26.00;;;;;8.85;100.00;102570.72;5128777;27;45325;-77
2022/11/26 00:23:17;;;;;;;;;32.00;26.25;;;;;8.88;100.00;102578.72;5132352;27;45499;-77
2022/11/26 00:25:44;;;;;;;;;26.75;22.75;;;;;8.89;100.00;102584.09;5115750;27;45894;-77
2022/11/26 00:28:25;;;;;;;;;31.50;25.00;;;;;8.88;100.00;102579.63;5137544;27;45409;-75
2022/11/26 00:30:50;;;;;;;;;23.75;19.50;;;;;8.88;100.00;102578.72;5138168;27;45493;-75
2022/11/26 00:33:16;;;;;;;;;36.25;27.50;;;;;8.86;100.00;102577.78;5136362;27;45583;-76
2022/11/26 00:35:41;;;;;;;;;33.25;28.00;;;;;8.86;100.00;102577.78;5135963;27;50653;-77
2022/11/26 00:38:14;;;;;;;;;28.25;23.00;;;;;8.85;100.00;102574.25;5135738;27;50197;-78
2022/11/26 00:40:39;;;;;;;;;25.25;21.75;;;;;8.88;100.00;102579.63;5136399;27;45498;-77
2022/11/26 00:43:05;;;;;;;;;34.00;27.25;;;;;8.85;100.00;102576.88;5114468;27;61266;-77
2022/11/26 00:45:30;;;;;;;;;39.25;31.75;;;;;8.87;100.00;102579.56;5133780;27;45904;-76
2022/11/26 00:47:57;;;;;;;;;35.75;30.00;;;;;8.86;100.00;102581.31;5134714;27;45566;-76
2022/11/26 00:50:24;;;;;;;;;38.00;28.25;;;;;8.85;100.00;102576.88;5130580;27;45379;-77
2022/11/26 00:52:52;;;;;;;;;41.50;31.25;;;;;8.83;100.00;102573.25;5115678;27;45315;-76
2022/11/26 00:55:36;;;;;;;;;32.75;30.50;;;;;8.84;100.00;102575.06;5115689;27;45783;-77
2022/11/26 00:58:02;;;;;;;;;43.00;36.75;;;;;8.83;100.00;102583.78;5130896;27;45225;-76
2022/11/26 01:00:30;;;;;;;;;40.25;34.00;;;;;8.82;100.00;102581.09;5117062;27;45578;-76
2022/11/26 01:02:56;;;;;;;;;37.75;33.25;;;;;8.80;100.00;102580.13;5118944;27;45627;-76
2022/11/26 01:05:23;;;;;;;;;41.75;31.75;;;;;8.81;100.00;102582.81;5134480;27;45598;-76
2022/11/26 01:07:49;;;;;;;;;48.50;33.75;;;;;8.81;100.00;102582.81;5136088;27;45417;-76
2022/11/26 01:10:24;;;;;;;;;44.75;36.00;;;;;8.82;100.00;102582.00;5136751;27;45451;-76
2022/11/26 01:12:50;;;;;;;;;26.75;25.25;;;;;8.78;100.00;102584.41;5118407;27;47015;-76
2022/11/26 01:15:18;;;;;;;;;45.00;35.00;;;;;8.79;100.00;102584.50;5115505;27;45381;-77
2022/11/26 01:17:43;;;;;;;;;42.00;35.25;;;;;8.77;100.00;102578.25;5113983;27;45216;-77
2022/11/26 01:20:29;;;;;;;;;35.75;32.00;;;;;8.79;100.00;102584.50;5115637;27;45572;-76
2022/11/26 01:22:58;;;;;;;;;42.75;35.00;;;;;8.78;100.00;102584.41;5116700;27;45509;-77
2022/11/26 01:25:25;;;;;;;;;26.75;22.00;;;;;8.78;100.00;102581.78;5131968;27;57083;-76
2022/11/26 01:27:50;;;;;;;;;41.75;35.00;;;;;8.77;100.00;102587.88;5115878;27;45442;-76
2022/11/26 01:30:21;;;;;;;;;45.00;29.25;;;;;8.74;100.00;102570.22;5136748;27;45487;-76
2022/11/26 01:32:48;;;;;;;;;45.25;33.75;;;;;8.73;100.00;102576.28;5136180;27;45494;-76
2022/11/26 01:35:14;;;;;;;;;37.50;27.75;;;;;8.75;100.00;102587.81;5117694;27;46592;-76
2022/11/26 01:37:40;;;;;;;;;40.25;35.50;;;;;8.74;100.00;102579.84;5115101;27;45549;-77
2022/11/26 01:40:32;;;;;;;;;36.25;31.50;;;;;8.75;100.00;102584.28;5134586;27;45439;-77
2022/11/26 01:43:18;;;;;;;;;44.75;35.50;;;;;8.74;100.00;102583.38;5077563;27;45521;-76
2022/11/26 01:45:43;;;;;;;;;46.00;36.50;;;;;8.70;100.00;102576.16;5132201;27;45682;-76
2022/11/26 01:48:30;;;;;;;;;39.00;32.50;;;;;8.72;100.00;102574.50;5131826;27;45480;-76
2022/11/26 01:51:04;;;;;;;;;42.00;34.00;;;;;8.70;100.00;102588.44;5126124;27;45369;-76
2022/11/26 01:53:37;;;;;;;;;39.00;30.75;;;;;8.70;100.00;102583.16;5129467;27;45404;-76
2022/11/26 01:56:22;;;;;;;;;34.50;31.00;;;;;8.71;100.00;102596.41;5118015;27;46162;-75
2022/11/26 01:59:03;;;;;;;;;40.00;31.00;;;;;8.69;100.00;102594.53;5122451;27;45302;-77
2022/11/26 02:01:29;;;;;;;;;34.00;28.50;;;;;8.71;100.00;102598.13;5135943;27;45234;-76
2022/11/26 02:04:07;;;;;;;;;43.25;36.50;;;;;8.70;100.00;102591.06;5115778;27;45373;-76
2022/11/26 02:06:33;;;;;;;;;34.00;27.50;;;;;8.71;100.00;102591.13;5133245;27;46827;-76
2022/11/26 02:09:04;;;;;;;;;37.50;30.75;;;;;8.70;100.00;102583.16;5118440;27;45496;-76
2022/11/26 02:11:30;;;;;;;;;33.50;26.25;;;;;8.71;100.00;102590.22;5120561;27;45504;-74
2022/11/26 02:13:59;;;;;;;;;33.50;27.50;;;;;8.68;100.00;102574.28;5139224;27;45434;-76
2022/11/26 02:16:27;;;;;;;;;26.50;24.25;;;;;8.70;100.00;102589.34;5137792;27;45914;-77
2022/11/26 02:19:25;;;;;;;;;27.75;25.00;;;;;8.68;100.00;102588.34;5133404;27;45334;-76
2022/11/26 02:22:12;;;;;;;;;25.50;21.00;;;;;8.65;100.00;102575.03;5121856;27;45572;-77
2022/11/26 02:24:52;;;;;;;;;32.50;22.75;;;;;8.67;100.00;102573.38;5116678;27;45397;-77
2022/11/26 02:27:55;;;;;;;;;26.50;21.25;;;;;8.66;100.00;102567.22;5138636;27;45635;-76
2022/11/26 02:30:21;;;;;;;;;22.00;19.75;;;;;8.66;100.00;102555.78;5131699;27;45210;-76
2022/11/26 02:32:47;;;;;;;;;23.50;18.25;;;;;8.66;100.00;102556.69;5139167;27;45258;-76
2022/11/26 02:35:19;;;;;;;;;19.25;16.50;;;;;8.66;100.00;102564.56;5137790;27;45544;-76
2022/11/26 02:37:58;;;;;;;;;17.25;12.75;;;;;8.66;100.00;102566.31;5114350;27;45644;-76
2022/11/26 02:40:24;;;;;;;;;18.50;10.50;;;;;8.69;100.00;102576.09;5135394;27;45437;-77
2022/11/26 02:42:50;;;;;;;;;10.75;8.50;;;;;8.69;100.00;102570.84;5138004;27;45388;-75
2022/11/26 02:45:29;;;;;;;;;16.50;9.50;;;;;8.71;100.00;102577.97;5139831;27;46031;-75
2022/11/26 02:47:58;;;;;;;;;11.75;10.00;;;;;8.72;100.00;102578.84;5117199;27;45650;-77
2022/11/26 02:50:31;;;;;;;;;10.25;8.00;;;;;8.73;100.00;102572.75;5140001;27;45202;-76
2022/11/26 02:52:57;;;;;;;;;14.75;10.50;;;;;8.71;100.00;102577.97;5117431;27;45262;-76
2022/11/26 02:55:27;;;;;;;;;14.00;11.25;;;;;8.71;100.00;102583.22;5121362;27;45282;-76
2022/11/26 02:57:53;;;;;;;;;9.00;7.00;;;;;8.74;100.00;102587.75;5118709;27;45758;-77
2022/11/26 03:00:18;;;;;;;;;10.75;7.75;;;;;8.69;100.00;102577.00;5120594;27;48889;-76
2022/11/26 03:02:48;;;;;;;;;14.25;8.25;;;;;8.71;100.00;102584.97;5128636;27;45302;-76
2022/11/26 03:05:16;;;;;;;;;11.75;8.25;;;;;8.73;100.00;102581.56;5131729;27;45718;-76
2022/11/26 03:07:46;;;;;;;;;7.25;7.25;;;;;8.72;100.00;102578.84;5118818;27;45674;-77
2022/11/26 03:10:12;;;;;;;;;12.75;10.00;;;;;8.72;100.00;102578.84;5120447;27;45401;-78
2022/11/26 03:12:38;;;;;;;;;20.00;14.50;;;;;8.69;100.00;102568.19;5132627;27;45353;-77
2022/11/26 03:15:04;;;;;;;;;15.50;11.75;;;;;8.69;100.00;102579.63;5138606;27;45486;-77
2022/11/26 03:17:29;;;;;;;;;16.50;10.75;;;;;8.65;100.00;102572.41;5132293;27;47021;-76
2022/11/26 03:19:54;;;;;;;;;21.00;14.00;;;;;8.64;100.00;102571.50;5136900;27;55687;-76
2022/11/26 03:22:20;;;;;;;;;15.50;9.50;;;;;8.60;100.00;102585.34;5109283;27;45488;-77
2022/11/26 03:24:45;;;;;;;;;11.00;10.75;;;;;8.58;100.00;102583.50;5132989;27;53035;-76
2022/11/26 03:27:10;;;;;;;;;13.75;10.25;;;;;8.56;100.00;102588.66;5134934;27;51820;-75
2022/11/26 03:29:36;;;;;;;;;11.50;10.00;;;;;8.56;100.00;102593.94;5131985;27;62162;-76
2022/11/26 03:32:01;;;;;;;;;12.25;10.25;;;;;8.54;100.00;102589.44;5133623;27;45316;-77
2022/11/26 03:34:27;;;;;;;;;15.00;12.00;;;;;8.56;100.00;102593.03;5138934;27;46220;-77
2022/11/26 03:36:52;;;;;;;;;15.50;11.50;;;;;8.53;100.00;102591.16;5134714;27;62546;-76
2022/11/26 03:39:17;;;;;;;;;15.00;11.50;;;;;8.55;100.00;102591.25;5117967;27;45419;-76
2022/11/26 03:41:43;;;;;;;;;11.50;10.50;;;;;8.54;100.00;102586.81;5134849;27;49959;-76
2022/11/26 03:44:12;;;;;;;;;16.25;10.75;;;;;8.54;100.00;102585.06;5121045;27;45561;-76
2022/11/26 03:46:37;;;;;;;;;10.25;10.25;;;;;8.55;100.00;102589.50;5119440;27;47465;-76
2022/11/26 03:49:03;;;;;;;;;10.00;6.75;;;;;8.55;100.00;102591.25;5139096;27;46120;-77
2022/11/26 03:51:28;;;;;;;;;12.50;11.00;;;;;8.56;100.00;102583.41;5133414;27;45359;-77
2022/11/26 03:53:53;;;;;;;;;15.25;11.50;;;;;8.61;100.00;102595.06;5129689;27;45446;-76
2022/11/26 03:56:19;;;;;;;;;9.75;9.75;;;;;8.62;100.00;102593.31;5119025;27;53355;-77
2022/11/26 03:58:44;;;;;;;;;15.00;10.00;;;;;8.63;100.00;102592.50;5119604;27;45560;-76
2022/11/26 04:01:10;;;;;;;;;14.00;11.25;;;;;8.64;100.00;102591.69;5138559;27;45378;-76
2022/11/26 04:03:36;;;;;;;;;15.50;10.00;;;;;8.63;100.00;102589.88;5135074;27;45266;-76
2022/11/26 04:06:02;;;;;;;;;12.00;11.00;;;;;8.65;100.00;102591.75;5135535;27;45658;-76
2022/11/26 04:08:27;;;;;;;;;11.75;9.25;;;;;8.64;100.00;102594.31;5130442;27;45358;-76
2022/11/26 04:10:53;;;;;;;;;12.00;9.25;;;;;8.68;100.00;102595.34;5135057;27;45437;-77
2022/11/26 04:13:18;;;;;;;;;12.75;9.25;;;;;8.66;100.00;102597.91;5136965;27;45452;-76
2022/11/26 04:15:43;;;;;;;;;12.25;11.00;;;;;8.68;100.00;102590.97;5131028;27;45856;-75
2022/11/26 04:18:09;;;;;;;;;15.25;11.25;;;;;8.68;100.00;102604.13;5131560;27;48528;-75
2022/11/26 04:20:34;;;;;;;;;13.25;11.25;;;;;8.65;100.00;102607.53;5129436;27;45603;-77
2022/11/26 04:23:00;;;;;;;;;9.50;8.00;;;;;8.61;100.00;102589.78;5136489;27;45361;-79
2022/11/26 04:25:25;;;;;;;;;13.25;11.50;;;;;8.60;100.00;102590.63;5118967;27;45448;-76
2022/11/26 04:27:50;;;;;;;;;10.50;8.50;;;;;8.58;100.00;102594.03;5131537;27;45318;-77
2022/11/26 04:30:16;;;;;;;;;14.75;14.75;;;;;8.56;100.00;102582.50;5134999;27;45498;-76
2022/11/26 04:32:41;;;;;;;;;17.25;11.00;;;;;8.54;100.00;102585.06;5111715;27;45544;-76
2022/11/26 04:35:07;;;;;;;;;10.75;10.75;;;;;8.53;100.00;102580.66;5128971;27;45638;-76
2022/11/26 04:37:33;;;;;;;;;17.00;13.50;;;;;8.56;100.00;102590.41;5119433;27;45241;-76
2022/11/26 04:39:58;;;;;;;;;21.75;13.50;;;;;8.53;100.00;102588.53;5115766;27;45391;-77
2022/11/26 04:42:24;;;;;;;;;23.50;17.50;;;;;8.60;100.00;102600.25;5131671;27;45615;-76
2022/11/26 04:44:49;;;;;;;;;12.00;12.00;;;;;8.60;100.00;102600.25;5118326;27;59696;-76
2022/11/26 04:47:14;;;;;;;;;15.50;12.50;;;;;8.61;100.00;102599.41;5126280;27;45545;-77
2022/11/26 04:49:40;;;;;;;;;23.25;16.25;;;;;8.60;100.00;102595.00;5119292;27;45590;-76
2022/11/26 04:52:05;;;;;;;;;20.75;18.25;;;;;8.61;100.00;102592.41;5119032;27;45554;-75
2022/11/26 04:54:31;;;;;;;;;21.25;19.50;;;;;8.61;100.00;102591.53;5135747;27;63397;-76
2022/11/26 04:56:56;;;;;;;;;21.50;17.50;;;;;8.62;100.00;102588.06;5136648;27;45248;-76
2022/11/26 04:59:21;;;;;;;;;28.50;23.25;;;;;8.62;100.00;102594.22;5115378;27;51554;-77
2022/11/26 05:01:47;;;;;;;;;29.50;22.50;;;;;8.61;100.00;102591.53;5132709;27;53180;-77
2022/11/26 05:04:12;;;;;;;;;24.00;20.50;;;;;8.62;100.00;102603.84;5134117;27;45707;-76
2022/11/26 05:06:37;;;;;;;;;20.50;16.50;;;;;8.63;100.00;102600.41;5130591;27;49727;-76
2022/11/26 05:09:03;;;;;;;;;31.50;23.50;;;;;8.62;100.00;102593.31;5117459;27;45972;-76
2022/11/26 05:11:28;;;;;;;;;27.50;22.00;;;;;8.65;100.00;102599.66;5137607;27;45341;-77
2022/11/26 05:13:53;;;;;;;;;30.25;22.75;;;;;8.63;100.00;102592.50;5132115;27;51758;-77
2022/11/26 05:16:19;;;;;;;;;28.00;22.50;;;;;8.65;100.00;102611.91;5112965;27;45506;-76
2022/11/26 05:18:44;;;;;;;;;25.25;22.00;;;;;8.65;100.00;102619.81;5131805;27;45356;-76
2022/11/26 05:21:09;;;;;;;;;30.50;26.25;;;;;8.65;100.00;102623.34;5134015;27;46059;-78
2022/11/26 05:23:35;;;;;;;;;24.75;22.25;;;;;8.68;100.00;102629.56;5138097;27;45916;-76
2022/11/26 05:26:00;;;;;;;;;36.25;29.25;;;;;8.68;100.00;102627.84;5139026;27;48525;-76
2022/11/26 05:28:26;;;;;;;;;0.00;0.00;;;;;8.66;100.00;102618.97;5139963;27;45602;-76
2022/11/26 05:30:59;;;;;;;;;36.75;28.00;;;;;8.68;100.00;102614.66;5135490;27;45323;-76
2022/11/26 05:33:25;;;;;;;;;32.50;26.00;;;;;8.70;100.00;102618.28;5136543;27;46390;-75
2022/11/26 05:35:50;;;;;;;;;33.00;29.50;;;;;8.71;100.00;102617.47;5108622;27;45199;-76
2022/11/26 05:38:15;;;;;;;;;30.00;27.25;;;;;8.75;100.00;102622.06;5138030;27;45233;-76
2022/11/26 05:40:41;;;;;;;;;33.50;28.75;;;;;8.75;100.00;102626.41;5134871;27;45581;-77
2022/11/26 05:43:06;;;;;;;;;35.75;30.00;;;;;8.77;100.00;102624.75;5135696;27;46473;-77
2022/11/26 05:45:31;;;;;;;;;33.50;27.25;;;;;8.75;100.00;102629.94;5130667;27;45440;-76
2022/11/26 05:47:57;;;;;;;;;29.00;25.00;;;;;8.78;100.00;102637.97;5132940;27;47913;-76
2022/11/26 05:50:22;;;;;;;;;29.75;28.50;;;;;8.83;100.00;102656.63;5135783;27;45316;-76
2022/11/26 05:52:47;;;;;;;;;27.25;26.00;;;;;8.82;100.00;102647.84;5140713;27;45868;-76
2022/11/26 05:55:15;;;;;;;;;30.75;26.50;;;;;8.85;100.00;102647.09;5138042;27;56540;-76
2022/11/26 05:57:40;;;;;;;;;27.25;21.75;;;;;8.83;100.00;102646.09;5115500;27;45501;-76
2022/11/26 06:00:06;;;;;;;;;38.75;24.75;;;;;8.86;100.00;102651.53;5118154;27;45704;-76
2022/11/26 06:02:32;;;;;;;;;33.50;28.00;;;;;8.88;100.00;102657.75;5136445;27;45613;-76
2022/11/26 06:04:57;;;;;;;;;47.50;26.50;;;;;8.88;100.00;102653.38;5121783;27;45436;-76
2022/11/26 06:07:22;;;;;;;;;34.75;29.00;;;;;8.87;100.00;102658.59;5140462;27;45408;-76
2022/11/26 06:09:48;;;;;;;;;34.00;28.00;;;;;8.89;100.00;102660.50;5135728;27;45262;-76
2022/11/26 06:12:13;;;;;;;;;40.75;30.75;;;;;8.91;100.00;102666.72;5139099;27;46103;-76
2022/11/26 06:14:38;;;;;;;;;33.25;25.00;;;;;8.89;100.00;102668.38;5101073;27;47104;-76
2022/11/26 06:17:04;;;;;;;;;34.75;28.00;;;;;8.93;100.00;102677.31;5140288;27;45968;-77
2022/11/26 06:19:29;;;;;;;;;31.25;26.00;;;;;8.94;100.00;102676.47;5136584;27;49064;-78
2022/11/26 06:21:54;;;;;;;;;37.25;27.50;;;;;8.94;100.00;102676.47;5138718;27;47512;-75
2022/11/26 06:24:20;;;;;;;;;35.75;26.00;;;;;8.97;100.00;102679.28;5127040;27;45521;-78
2022/11/26 06:26:45;;;;;;;;;31.25;26.25;;;;;8.98;100.00;102657.38;5109795;27;45580;-76
2022/11/26 06:29:12;;;;;;;;;37.00;29.25;;;;;8.98;100.00;102656.47;5139860;27;45266;-76
2022/11/26 06:31:37;;;;;;;;;29.75;24.25;;;;;9.00;100.00;102661.00;5118350;27;46911;-76
2022/11/26 06:34:02;;;;;;;;;37.00;28.75;;;;;9.00;100.00;102661.00;5132039;27;48928;-76
2022/11/26 06:36:28;;;;;;;;;27.75;25.25;;;;;9.04;100.00;102664.66;5121308;27;45298;-76
2022/11/26 06:38:53;;;;;;;;;28.75;26.75;;;;;9.03;100.00;102674.28;5134748;27;45269;-76
2022/11/26 06:41:19;;;;;;;;;35.50;27.50;;;;;9.05;100.00;102679.63;5120446;27;47485;-76
2022/11/26 06:43:44;;;;;;;;;28.75;25.25;;;;;9.07;100.00;102684.16;5111890;27;45429;-77
2022/11/26 06:46:10;;;;;;;;;29.00;25.00;;;;;9.06;100.00;102687.63;5120872;27;45207;-76
2022/11/26 06:48:36;;;;;;;;;26.50;26.50;;;;;9.08;100.00;102695.59;5115144;27;45322;-76
2022/11/26 06:51:07;;;;;;;;;21.75;17.25;;;;;9.12;100.00;102708.09;5112750;27;46646;-76
2022/11/26 06:53:32;;;;;;;;;25.75;21.50;;;;;9.14;100.00;102703.78;5117153;27;45405;-76
2022/11/26 06:55:59;;;;;;;;;28.50;23.25;;;;;9.16;100.00;102694.19;5139415;27;45976;-76
2022/11/26 06:58:25;;;;;;;;;31.50;26.25;;;;;9.18;100.00;102689.91;5134639;27;45666;-76
2022/11/26 07:00:50;;;;;;;;;24.50;21.00;;;;;9.21;100.00;102692.69;5120446;27;46424;-75
2022/11/26 07:03:15;;;;;;;;;25.75;25.00;;;;;9.21;100.00;102684.78;5213894;22;45423;-76
2022/11/26 07:05:41;;;;;;;;;26.50;22.75;;;;;9.22;100.00;102675.16;5073925;28;45468;-78
2022/11/26 07:08:06;;;;;;;;;27.75;19.50;;;;;9.21;100.00;102684.78;5053466;28;45348;-76
2022/11/26 07:10:32;;;;;;;;;28.50;23.75;;;;;9.21;100.00;102684.78;5069814;28;51650;-76
2022/11/26 07:12:57;;;;;;;;;24.25;18.50;;;;;9.23;100.00;102690.13;5073430;28;45453;-75
2022/11/26 07:15:22;;;;;;;;;26.50;16.00;;;;;9.20;100.00;102680.34;5070127;28;46065;-76
2022/11/26 07:17:48;;;;;;;;;12.75;11.75;;;;;9.21;100.00;102697.94;5071056;28;45401;-77
2022/11/26 07:20:13;;;;;;;;;16.75;13.00;;;;;9.24;100.00;102707.75;5076214;28;45609;-78
2022/11/26 07:22:38;;;;;;;;;14.75;11.00;;;;;9.25;100.00;102707.81;5071875;27;48638;-77
2022/11/26 07:25:04;;;;;;;;;14.75;10.50;;;;;9.27;100.00;102711.44;5055616;27;45824;-75
2022/11/26 07:27:29;;;;;;;;;8.50;8.50;;;;;9.29;100.00;102716.78;5065823;27;45447;-76
2022/11/26 07:29:55;;;;;;;;;11.75;7.50;;;;;9.27;100.00;102714.09;5043440;28;46309;-77
2022/11/26 07:32:20;;;;;;;;;11.50;8.50;;;;;9.29;100.00;102706.22;5062424;27;45423;-76
2022/11/26 07:34:46;;;;;;;;;7.25;5.50;;;;;9.29;100.00;102698.31;5061604;27;51873;-77
2022/11/26 07:37:11;;;;;;;;;8.75;6.00;;;;;9.34;100.00;102696.81;5047871;28;46980;-77
2022/11/26 07:39:36;;;;;;;;;9.00;7.00;;;;;9.35;100.00;102695.97;5062323;28;51039;-76
2022/11/26 07:42:02;;;;;;;;;8.50;5.00;;;;;9.38;100.00;102689.09;5061733;27;45594;-77
2022/11/26 07:44:27;;;;;;;;;6.75;4.25;;;;;9.39;100.00;102685.63;5064037;27;45762;-76
2022/11/26 07:46:53;;;;;;;;;5.75;4.00;;;;;9.43;100.00;102690.22;5060536;27;45420;-77
2022/11/26 07:49:18;;;;;;;;;8.00;6.50;;;;;9.45;100.00;102680.63;5054052;28;49220;-76
2022/11/26 07:51:43;;;;;;;;;6.25;4.50;;;;;9.49;100.00;102688.69;5064649;28;49284;-77
2022/11/26 07:54:09;;;;;;;;;8.00;7.00;;;;;9.50;100.00;102680.84;5066323;27;45524;-78
2022/11/26 07:56:34;;;;;;;;;12.75;10.50;;;;;9.54;100.00;102684.53;5056981;28;45462;-77
2022/11/26 07:59:00;;;;;;;;;8.50;8.50;;;;;9.56;100.00;102680.22;5068434;27;46518;-78
2022/11/26 08:01:28;;;;;;;;;13.00;11.50;;;;;9.56;100.00;102678.47;5050574;28;45585;-77
2022/11/26 08:03:54;;;;;;;;;21.75;16.75;;;;;9.62;100.00;102684.03;5027670;28;45355;-76
2022/11/26 08:06:21;;;;;;;;;19.50;13.25;;;;;9.62;100.00;102677.84;5048158;28;45475;-76
2022/11/26 08:08:47;;;;;;;;;16.75;13.25;;;;;9.66;100.00;102695.63;5052169;28;46614;-77
2022/11/26 08:11:15;;;;;;;;;19.50;12.75;;;;;9.68;100.00;102710.66;5051029;28;45376;-78
2022/11/26 08:13:42;;;;;;;;;15.00;13.00;;;;;9.71;100.00;102712.56;5033208;28;45306;-77
2022/11/26 08:16:08;;;;;;;;;17.25;14.25;;;;;9.73;100.00;102707.34;5049939;28;45464;-76
2022/11/26 08:18:33;;;;;;;;;16.00;12.25;;;;;9.77;100.00;102720.75;5025905;28;45746;-76
2022/11/26 08:20:59;;;;;;;;;17.50;11.25;;;;;9.78;100.00;102719.91;5048712;28;45403;-78
2022/11/26 08:23:25;;;;;;;;;19.50;17.75;;;;;9.82;100.00;102727.13;5044862;28;45453;-76
2022/11/26 08:25:51;;;;;;;;;19.75;17.25;;;;;9.83;100.00;102723.66;5017296;28;46326;-77
2022/11/26 08:28:17;;;;;;;;;16.00;13.00;;;;;9.88;100.00;102723.84;5024697;28;45585;-76
2022/11/26 08:30:43;;;;;;;;;22.50;13.75;;;;;9.88;100.00;102722.09;5048857;28;45688;-77
2022/11/26 08:33:08;;;;;;;;;21.25;14.00;;;;;9.96;100.00;102719.81;5051722;28;45537;-76
2022/11/26 08:35:34;;;;;;;;;12.00;12.00;;;;;10.00;100.00;102716.47;5049145;28;45475;-76
2022/11/26 08:37:59;;;;;;;;;14.00;10.75;;;;;10.03;100.00;102710.44;5049121;28;45572;-76
2022/11/26 08:40:25;;;;;;;;;8.50;7.75;;;;;10.04;100.00;102707.84;5045322;28;58042;-76
2022/11/26 08:42:50;;;;;;;;;10.00;8.50;;;;;10.08;100.00;102698.34;5047521;28;45508;-76
2022/11/26 08:45:15;;;;;;;;;14.75;8.75;;;;;10.11;100.00;102693.16;5054736;28;45396;-76
2022/11/26 08:47:41;;;;;;;;;10.50;7.00;;;;;10.11;100.00;102691.44;5051107;28;67367;-77
2022/11/26 08:50:07;;;;;;;;;9.75;7.00;;;;;10.14;100.00;102693.31;5035626;28;49598;-76
2022/11/26 08:52:32;;;;;;;;;17.50;9.75;;;;;10.20;100.00;102706.78;5042370;28;46036;-77
2022/11/26 08:54:57;;;;;;;;;14.75;7.25;;;;;10.23;100.00;102707.84;5046746;28;52335;-77
2022/11/26 08:57:23;;;;;;;;;9.25;8.25;;;;;10.31;100.00;102715.19;5051948;28;46424;-75
2022/11/26 08:59:49;;;;;;;;;9.75;8.00;;;;;10.37;100.00;102716.31;5047904;28;52034;-76
2022/11/26 09:02:14;;;;;;;;;9.50;7.00;;;;;10.44;100.00;102717.50;5051239;28;45583;-77
2022/11/26 09:04:40;;;;;;;;;11.50;8.00;;;;;10.51;100.00;102718.66;5067156;27;52973;-76
2022/11/26 09:07:05;;;;;;;;;9.00;7.75;;;;;10.55;100.00;102715.31;5036823;28;47678;-75
2022/11/26 09:09:31;;;;;;;;;10.00;7.00;;;;;10.56;100.00;102710.09;5080841;27;50483;-75
2022/11/26 09:11:58;;;;;;;;;9.50;8.00;;;;;10.63;100.00;102712.13;5048854;28;45669;-76
2022/11/26 09:14:26;;;;;;;;;8.75;7.25;;;;;10.65;100.00;102709.53;5066618;28;45802;-77
2022/11/26 09:16:52;;;;;;;;;12.25;9.75;;;;;10.66;100.00;102721.94;5060841;28;46062;-75
2022/11/26 09:19:18;;;;;;;;;9.00;8.25;;;;;10.66;100.00;102717.56;5069246;27;45552;-77
2022/11/26 09:21:44;;;;;;;;;8.50;8.50;;;;;10.67;100.00;102723.72;5068857;28;45672;-77
2022/11/26 09:24:10;;;;;;;;;16.25;13.00;;;;;10.66;100.00;102714.00;5049261;28;45697;-78
2022/11/26 09:26:35;;;;;;;;;11.00;8.00;;;;;10.63;100.00;102706.84;5070715;28;45607;-76
2022/11/26 09:29:01;;;;;;;;;11.75;9.25;;;;;10.64;100.00;102718.31;5072995;27;55844;-75
2022/11/26 09:31:27;;;;;;;;;10.25;8.00;;;;;10.66;100.00;102708.72;5057959;28;46775;-76
2022/11/26 09:33:57;;;;;;;;;15.00;10.00;;;;;10.69;100.00;102714.13;5079807;27;45665;-77
2022/11/26 09:36:23;;;;;;;;;8.00;8.00;;;;;10.66;100.00;102711.38;5074670;27;45882;-76
2022/11/26 09:38:52;;;;;;;;;12.50;10.00;;;;;10.71;100.00;102709.81;5073758;28;45432;-75
2022/11/26 09:41:39;;;;;;;;;9.75;8.50;;;;;10.74;100.00;102713.47;5068932;28;45440;-76
2022/11/26 09:44:25;;;;;;;;;11.75;8.75;;;;;10.77;100.00;102704.78;5072131;27;45835;-77
2022/11/26 09:46:53;;;;;;;;;12.50;11.25;;;;;10.81;100.00;102705.78;5073552;27;46808;-75
2022/11/26 09:49:19;;;;;;;;;10.75;10.00;;;;;10.78;100.00;102696.00;5072805;27;45280;-76
2022/11/26 09:51:49;;;;;;;;;17.50;13.50;;;;;10.83;100.00;102699.72;5075380;27;49431;-76
2022/11/26 09:54:17;;;;;;;;;9.00;8.75;;;;;10.85;100.00;102692.75;5069978;28;45402;-76
2022/11/26 09:56:43;;;;;;;;;10.25;9.75;;;;;10.85;100.00;102686.56;5070988;27;46622;-77
2022/11/26 09:59:12;;;;;;;;;15.50;9.25;;;;;10.87;100.00;102704.31;5068268;27;49211;-75
2022/11/26 10:01:39;;;;;;;;;11.00;10.00;;;;;10.86;100.00;102694.53;5074648;27;45619;-76
2022/11/26 10:04:21;;;;;;;;;11.25;11.25;;;;;10.87;100.00;102683.16;5066131;28;45449;-76
2022/11/26 10:06:55;;;;;;;;;16.50;11.50;;;;;10.91;100.00;102690.34;5059885;28;47966;-78
2022/11/26 10:10:01;;;;;;;;;10.75;10.75;;;;;10.97;100.00;102687.03;5062992;28;45523;-76
2022/11/26 10:12:43;;;;;;;;;20.25;12.25;;;;;10.99;100.00;102693.31;4993696;28;45618;-75
2022/11/26 10:15:26;;;;;;;;;16.25;11.00;;;;;11.05;100.00;102690.00;5042939;28;45321;-76
2022/11/26 10:18:01;;;;;;;;;16.50;14.25;;;;;11.10;100.00;102691.09;5062432;28;47805;-78
2022/11/26 10:20:55;;;;;;;;;18.00;14.00;;;;;11.15;100.00;102684.22;5056811;28;45704;-76
2022/11/26 10:23:26;;;;;;;;;12.50;11.00;;;;;11.19;100.00;102696.72;5059211;28;45771;-79
2022/11/26 10:26:11;;;;;;;;;14.75;9.75;;;;;11.23;100.00;102691.59;5060079;28;45514;-76
2022/11/26 10:28:47;;;;;;;;;13.75;11.50;;;;;11.30;100.00;102687.47;5055932;28;46336;-80
2022/11/26 10:31:25;;;;;;;;;15.25;11.50;;;;;11.33;100.00;102671.69;5058397;28;45471;-77
2022/11/26 10:34:02;;;;;;;;;11.75;11.75;;;;;11.39;100.00;102679.84;5058612;28;45537;-76
2022/11/26 10:36:40;;;;;;;;;25.00;15.25;;;;;11.43;100.00;102679.13;5065615;28;45620;-76
2022/11/26 10:39:10;;;;;;;;;17.25;13.50;;;;;11.47;100.00;102670.47;5059682;28;46119;-76
2022/11/26 10:41:36;;;;;;;;;17.25;13.50;;;;;11.49;100.00;102662.56;5059245;28;45446;-76
2022/11/26 10:44:28;;;;;;;;;23.50;16.25;;;;;11.51;100.00;102671.50;5065809;28;47038;-76
2022/11/26 10:46:53;;;;;;;;;22.75;15.25;;;;;11.52;100.00;102673.28;5045628;28;45435;-75
2022/11/26 10:49:27;;;;;;;;;22.25;17.50;;;;;11.55;100.00;102668.97;5052226;28;45824;-77
2022/11/26 10:51:57;;;;;;;;;20.25;12.25;;;;;11.61;100.00;102665.69;5058495;28;45340;-76
2022/11/26 10:54:29;;;;;;;;;17.00;14.25;;;;;11.64;100.00;102671.06;5060745;28;45426;-77
2022/11/26 10:56:55;;;;;;;;;24.75;17.50;;;;;11.62;100.00;102664.84;5058971;28;45456;-76
2022/11/26 10:59:27;;;;;;;;;23.00;15.75;;;;;11.68;100.00;102677.38;5074851;28;48149;-77
2022/11/26 11:01:54;;;;;;;;;15.25;15.25;;;;;11.66;100.00;102672.03;5051094;28;45440;-76
2022/11/26 11:04:32;;;;;;;;;15.50;12.75;;;;;11.66;100.00;102679.06;5039884;28;45463;-76
2022/11/26 11:06:58;;;;;;;;;15.50;13.25;;;;;11.64;100.00;102680.75;5040935;28;45496;-76
2022/11/26 11:09:25;;;;;;;;;28.75;17.75;;;;;11.64;100.00;102675.47;5039438;28;52248;-76
2022/11/26 11:12:15;;;;;;;;;19.00;15.25;;;;;11.64;100.00;102679.00;5055296;28;45482;-76
2022/11/26 11:14:41;;;;;;;;;13.50;11.00;;;;;11.65;100.00;102680.81;5057154;28;45459;-76